Time;durP1;ratioP1;P1;durP2;ratioP2;P2;SDS_P1;SDS_P2;PMS_P1;PMS_P2;Temp;Humidity;BMP_temperature;BMP_pressure;BME280_temperature;BME280_humidity;BME280_pressure;Samples;Min_cycle;Max_cycle;Signal;HPM_P1;HPM_P2
2023/05/08 00:00:03;;;;;;;0.47;0.47;;;20.50;88.30;;;;;;5002555;28;20586;-76
2023/05/08 00:02:29;;;;;;;0.52;0.47;;;20.50;88.30;;;;;;5003889;28;20533;-75
2023/05/08 00:04:55;;;;;;;0.77;0.60;;;20.50;88.30;;;;;;5033854;28;20073;-76
2023/05/08 00:07:20;;;;;;;0.75;0.40;;;20.50;88.30;;;;;;5034962;28;20054;-76
2023/05/08 00:09:46;;;;;;;0.60;0.40;;;20.50;88.30;;;;;;5007286;28;20077;-76
2023/05/08 00:12:11;;;;;;;0.40;0.40;;;20.50;88.30;;;;;;5005316;28;20412;-76
2023/05/08 00:14:37;;;;;;;0.50;0.50;;;20.50;88.30;;;;;;4999107;28;20143;-76
2023/05/08 00:17:02;;;;;;;0.50;0.50;;;20.50;88.30;;;;;;5004153;28;20058;-75
2023/05/08 00:19:28;;;;;;;0.50;0.50;;;20.50;88.40;;;;;;5005729;28;20041;-75
2023/05/08 00:21:54;;;;;;;0.50;0.50;;;20.50;88.30;;;;;;5005268;28;20046;-75
2023/05/08 00:24:19;;;;;;;0.40;0.40;;;20.50;89.00;;;;;;5005239;28;20049;-75
2023/05/08 00:26:45;;;;;;;0.32;0.30;;;20.50;88.20;;;;;;5006790;28;20046;-75
2023/05/08 00:29:11;;;;;;;0.40;0.40;;;20.50;88.30;;;;;;5004448;28;20522;-76
2023/05/08 00:31:36;;;;;;;0.30;0.30;;;20.50;88.40;;;;;;5003702;28;20424;-76
2023/05/08 00:34:02;;;;;;;0.50;0.50;;;20.50;88.40;;;;;;5018015;28;20054;-77
2023/05/08 00:36:27;;;;;;;0.60;0.50;;;20.50;88.40;;;;;;5000686;28;20401;-76
2023/05/08 00:38:53;;;;;;;0.63;0.63;;;20.50;88.40;;;;;;5000165;28;20081;-75
2023/05/08 00:41:18;;;;;;;0.50;0.50;;;20.50;88.40;;;;;;5000065;28;20463;-76
2023/05/08 00:43:44;;;;;;;0.63;0.40;;;20.50;88.40;;;;;;5002718;28;20038;-76
2023/05/08 00:46:10;;;;;;;2.03;0.82;;;20.40;88.30;;;;;;4999805;28;20069;-76
2023/05/08 00:48:35;;;;;;;0.90;0.60;;;20.50;88.40;;;;;;5020101;28;20057;-76
2023/05/08 00:51:03;;;;;;;0.45;0.45;;;20.50;88.30;;;;;;4999207;28;20045;-76
2023/05/08 00:53:29;;;;;;;0.40;0.40;;;20.50;88.30;;;;;;5020149;28;20046;-76
2023/05/08 00:55:55;;;;;;;0.50;0.50;;;20.50;88.30;;;;;;5005461;28;20327;-76
2023/05/08 00:58:20;;;;;;;0.52;0.52;;;20.40;88.30;;;;;;5003116;28;20453;-76
2023/05/08 01:00:46;;;;;;;0.60;0.60;;;20.50;88.30;;;;;;5004721;28;20507;-76
2023/05/08 01:03:12;;;;;;;0.50;0.50;;;20.50;89.10;;;;;;5000775;28;20068;-76
2023/05/08 01:05:39;;;;;;;1.00;0.50;;;20.40;88.30;;;;;;5002674;28;20133;-75
2023/05/08 01:08:05;;;;;;;0.73;0.45;;;20.50;88.40;;;;;;5015867;28;20308;-76
2023/05/08 01:11:06;;;;;;;1.67;0.50;;;20.40;88.30;;;;;;5003104;28;20054;-76
2023/05/08 01:14:12;;;;;;;0.47;0.40;;;20.50;88.40;;;;;;5023137;28;20076;-75
2023/05/08 01:16:44;;;;;;;0.40;0.40;;;20.40;88.40;;;;;;5015354;28;20042;-75
2023/05/08 01:19:33;;;;;;;0.52;0.40;;;20.40;88.40;;;;;;5003621;28;20625;-76
2023/05/08 01:22:01;;;;;;;0.43;0.43;;;20.50;88.40;;;;;;5017024;28;20054;-75
2023/05/08 01:24:52;;;;;;;1.10;0.55;;;20.40;88.40;;;;;;5002127;28;20161;-75
2023/05/08 01:27:56;;;;;;;0.43;0.30;;;20.40;88.40;;;;;;5000368;28;20981;-76
2023/05/08 01:30:37;;;;;;;0.50;0.40;;;20.40;88.40;;;;;;4944942;28;20043;-76
2023/05/08 01:33:50;;;;;;;0.30;0.30;;;20.40;88.40;;;;;;4928320;28;20051;-76
2023/05/08 01:36:21;;;;;;;0.40;0.40;;;20.40;88.40;;;;;;4944110;28;20051;-76
2023/05/08 01:39:06;;;;;;;0.30;0.30;;;20.40;88.40;;;;;;4947032;28;20082;-76
2023/05/08 01:41:32;;;;;;;0.47;0.30;;;20.40;88.30;;;;;;4930300;28;20035;-76
2023/05/08 01:44:14;;;;;;;0.40;0.40;;;20.40;88.30;;;;;;4927467;28;20053;-76
2023/05/08 01:46:40;;;;;;;0.52;0.52;;;20.40;88.20;;;;;;4944740;28;20638;-76
2023/05/08 01:49:12;;;;;;;0.43;0.43;;;20.40;88.30;;;;;;4947326;28;20043;-76
2023/05/08 01:51:40;;;;;;;0.50;0.50;;;20.40;88.40;;;;;;4931840;28;20035;-76
2023/05/08 01:54:08;;;;;;;0.30;0.30;;;20.40;88.30;;;;;;4946736;28;20089;-76
2023/05/08 01:56:33;;;;;;;0.40;0.40;;;20.40;88.30;;;;;;4948612;28;20483;-75
2023/05/08 01:58:59;;;;;;;0.60;0.60;;;20.40;88.30;;;;;;4980055;28;20059;-75
2023/05/08 02:01:24;;;;;;;0.30;0.30;;;20.40;88.30;;;;;;4916377;28;20070;-76
2023/05/08 02:03:51;;;;;;;0.30;0.30;;;20.40;88.30;;;;;;4949043;28;20058;-76
2023/05/08 02:06:19;;;;;;;0.40;0.40;;;20.40;88.40;;;;;;4948028;28;20049;-76
2023/05/08 02:08:44;;;;;;;0.40;0.40;;;20.40;89.10;;;;;;5016098;28;20138;-76
2023/05/08 02:11:11;;;;;;;0.50;0.50;;;20.30;88.20;;;;;;5019503;28;20827;-76
2023/05/08 02:13:37;;;;;;;0.30;0.30;;;20.30;88.20;;;;;;5000344;28;20041;-76
2023/05/08 02:16:02;;;;;;;0.90;0.38;;;20.40;88.20;;;;;;5021287;28;20053;-76
2023/05/08 02:18:28;;;;;;;0.40;0.40;;;20.40;88.20;;;;;;5008619;28;20056;-75
2023/05/08 02:20:55;;;;;;;0.40;0.40;;;20.30;88.20;;;;;;5020791;28;20124;-76
2023/05/08 02:23:22;;;;;;;0.40;0.40;;;20.30;88.20;;;;;;5018751;28;20045;-76
2023/05/08 02:25:47;;;;;;;0.38;0.38;;;20.30;88.20;;;;;;5019483;28;20038;-76
2023/05/08 02:28:14;;;;;;;0.35;0.30;;;20.30;88.10;;;;;;5021435;28;20069;-76
2023/05/08 02:30:40;;;;;;;0.40;0.40;;;20.30;88.10;;;;;;5021153;28;20037;-76
2023/05/08 02:33:06;;;;;;;0.40;0.38;;;20.30;88.10;;;;;;5021759;28;20045;-75
2023/05/08 02:35:32;;;;;;;0.50;0.50;;;20.40;88.10;;;;;;4982156;28;20451;-76
2023/05/08 02:37:57;;;;;;;0.50;0.50;;;20.40;88.10;;;;;;5005004;28;20033;-76
2023/05/08 02:40:25;;;;;;;0.60;0.60;;;20.30;88.10;;;;;;5004939;28;20041;-76
2023/05/08 02:42:50;;;;;;;0.50;0.50;;;20.30;88.00;;;;;;5031028;28;20056;-76
2023/05/08 02:45:16;;;;;;;0.47;0.30;;;20.40;88.00;;;;;;5006277;28;20045;-76
2023/05/08 02:47:56;;;;;;;1.17;0.50;;;20.30;88.00;;;;;;5009502;28;20045;-75
2023/05/08 02:51:01;;;;;;;0.35;0.35;;;20.30;88.00;;;;;;5006355;28;20038;-76
2023/05/08 02:53:32;;;;;;;0.32;0.30;;;20.40;88.10;;;;;;5001110;28;20054;-75
2023/05/08 02:56:09;;;;;;;0.30;0.30;;;20.30;88.00;;;;;;5020609;28;20053;-75
2023/05/08 02:58:47;;;;;;;0.63;0.35;;;20.30;88.10;;;;;;5001781;28;20052;-76
2023/05/08 03:01:30;;;;;;;0.57;0.57;;;20.30;88.00;;;;;;5005506;28;20184;-75
2023/05/08 03:04:05;;;;;;;0.40;0.40;;;20.30;88.10;;;;;;5006435;28;20044;-75
2023/05/08 03:06:34;;;;;;;0.40;0.40;;;20.30;88.10;;;;;;5036434;28;20038;-76
2023/05/08 03:09:00;;;;;;;1.23;0.30;;;20.30;88.80;;;;;;5003712;28;20049;-75
2023/05/08 03:11:27;;;;;;;0.35;0.35;;;20.30;88.00;;;;;;5014006;28;20046;-76
2023/05/08 03:13:56;;;;;;;0.30;0.30;;;20.30;87.90;;;;;;5002276;28;20073;-76
2023/05/08 03:16:23;;;;;;;0.25;0.25;;;20.30;88.00;;;;;;5003468;28;20095;-76
2023/05/08 03:18:53;;;;;;;0.25;0.25;;;20.30;87.90;;;;;;5030259;28;20511;-76
2023/05/08 03:21:20;;;;;;;1.05;0.50;;;20.30;87.90;;;;;;5013830;28;20522;-76
2023/05/08 03:23:50;;;;;;;0.60;0.60;;;20.30;88.00;;;;;;5030617;28;20046;-75
2023/05/08 03:26:18;;;;;;;0.30;0.30;;;20.30;87.90;;;;;;5019189;28;20038;-76
2023/05/08 03:28:49;;;;;;;0.32;0.32;;;20.30;88.00;;;;;;5006199;28;20042;-76
2023/05/08 03:31:19;;;;;;;0.35;0.32;;;20.30;88.00;;;;;;4983975;28;20114;-76
2023/05/08 03:33:45;;;;;;;0.25;0.25;;;20.30;88.70;;;;;;5025572;28;20572;-76
2023/05/08 03:36:11;;;;;;;0.30;0.30;;;20.30;88.00;;;;;;4988706;28;20050;-77
2023/05/08 03:38:36;;;;;;;0.45;0.45;;;20.30;88.70;;;;;;5017306;28;20038;-76
2023/05/08 03:41:02;;;;;;;0.88;0.38;;;20.30;87.90;;;;;;5018786;28;20422;-76
2023/05/08 03:43:28;;;;;;;0.25;0.25;;;20.30;87.80;;;;;;5002332;28;20037;-76
2023/05/08 03:45:53;;;;;;;0.30;0.20;;;20.30;87.90;;;;;;5003090;28;20487;-76
2023/05/08 03:48:21;;;;;;;0.43;0.43;;;20.30;88.80;;;;;;5005559;28;20519;-76
2023/05/08 03:50:46;;;;;;;0.50;0.50;;;20.30;88.00;;;;;;5004389;28;20077;-76
2023/05/08 03:53:12;;;;;;;0.22;0.20;;;20.30;88.70;;;;;;5019903;28;21143;-77
2023/05/08 03:55:38;;;;;;;0.30;0.30;;;20.30;87.90;;;;;;5019790;28;20053;-75
2023/05/08 03:58:16;;;;;;;0.35;0.35;;;20.30;88.00;;;;;;5035390;28;20468;-76
2023/05/08 04:00:57;;;;;;;0.38;0.38;;;20.30;87.90;;;;;;5007823;28;20041;-76
2023/05/08 04:03:36;;;;;;;0.50;0.40;;;20.30;88.00;;;;;;5002069;28;20515;-76
2023/05/08 04:06:09;;;;;;;0.30;0.25;;;20.30;88.00;;;;;;5005563;28;20076;-76
2023/05/08 04:08:52;;;;;;;0.20;0.20;;;20.20;88.10;;;;;;5005671;28;20042;-76
2023/05/08 04:11:35;;;;;;;0.30;0.30;;;20.20;88.10;;;;;;5003359;28;20081;-76
2023/05/08 04:14:02;;;;;;;0.40;0.40;;;20.20;88.10;;;;;;5017797;28;20046;-76
2023/05/08 04:16:28;;;;;;;0.40;0.40;;;20.20;88.10;;;;;;5020001;28;20041;-76
2023/05/08 04:19:02;;;;;;;0.28;0.20;;;20.30;88.20;;;;;;5004075;28;20052;-75
2023/05/08 04:21:28;;;;;;;0.40;0.40;;;20.20;88.00;;;;;;5002154;28;20081;-76
2023/05/08 04:23:55;;;;;;;0.40;0.40;;;20.30;88.10;;;;;;5001375;28;20038;-76
2023/05/08 04:26:21;;;;;;;0.30;0.30;;;20.30;88.10;;;;;;5005620;28;20054;-76
2023/05/08 04:28:46;;;;;;;0.30;0.30;;;20.20;88.00;;;;;;5007139;28;20052;-76
2023/05/08 04:31:14;;;;;;;0.47;0.47;;;20.30;88.10;;;;;;5004234;28;20054;-76
2023/05/08 04:33:40;;;;;;;0.43;0.43;;;20.30;88.10;;;;;;5006166;28;20053;-75
2023/05/08 04:36:06;;;;;;;0.30;0.30;;;20.30;87.80;;;;;;5015472;28;20038;-76
2023/05/08 04:38:36;;;;;;;0.30;0.30;;;20.30;87.60;;;;;;5018060;28;20069;-76
2023/05/08 04:41:02;;;;;;;0.30;0.30;;;20.30;87.50;;;;;;4999067;28;20121;-76
2023/05/08 04:43:27;;;;;;;0.60;0.60;;;20.20;87.80;;;;;;5004991;28;20137;-76
2023/05/08 04:45:53;;;;;;;0.30;0.30;;;20.30;88.10;;;;;;5004690;28;20352;-75
2023/05/08 04:48:18;;;;;;;0.43;0.43;;;20.20;88.00;;;;;;5001407;28;20038;-76
2023/05/08 04:50:44;;;;;;;0.30;0.30;;;20.20;87.90;;;;;;5002734;28;20053;-75
2023/05/08 04:53:09;;;;;;;0.30;0.30;;;20.20;87.90;;;;;;5002226;28;20049;-75
2023/05/08 04:55:35;;;;;;;0.30;0.30;;;20.20;88.00;;;;;;5002559;28;20463;-75
2023/05/08 04:58:01;;;;;;;0.43;0.43;;;20.20;88.10;;;;;;5017392;28;20045;-75
2023/05/08 05:00:26;;;;;;;0.30;0.30;;;20.20;88.10;;;;;;5004069;28;20527;-76
2023/05/08 05:02:52;;;;;;;0.30;0.30;;;20.20;88.00;;;;;;5005279;28;20045;-76
2023/05/08 05:05:17;;;;;;;0.50;0.40;;;20.20;88.00;;;;;;5002770;28;20033;-76
2023/05/08 05:07:43;;;;;;;0.30;0.30;;;20.20;88.00;;;;;;5003065;28;20116;-75
2023/05/08 05:10:09;;;;;;;0.35;0.35;;;20.30;88.10;;;;;;5005431;28;20042;-76
2023/05/08 05:12:34;;;;;;;1.10;0.40;;;20.20;88.00;;;;;;5004438;28;20049;-75
2023/05/08 05:15:00;;;;;;;0.55;0.40;;;20.20;88.10;;;;;;5002527;28;20022;-75
2023/05/08 05:17:26;;;;;;;0.32;0.32;;;20.20;88.00;;;;;;5002163;28;20142;-76
2023/05/08 05:19:52;;;;;;;0.50;0.50;;;20.20;88.10;;;;;;5002590;28;20054;-75
2023/05/08 05:22:17;;;;;;;0.35;0.35;;;20.20;88.20;;;;;;5002203;28;20577;-76
2023/05/08 05:24:43;;;;;;;0.47;0.47;;;20.20;88.20;;;;;;5007157;28;20045;-76
2023/05/08 05:27:08;;;;;;;0.30;0.30;;;20.20;88.10;;;;;;5003048;28;20076;-76
2023/05/08 05:29:34;;;;;;;0.20;0.20;;;20.20;88.10;;;;;;5002753;28;20042;-75
2023/05/08 05:32:01;;;;;;;0.30;0.22;;;20.20;88.10;;;;;;5000697;28;20038;-75
2023/05/08 05:34:26;;;;;;;0.30;0.30;;;20.20;88.20;;;;;;5000623;28;21184;-76
2023/05/08 05:36:52;;;;;;;0.38;0.38;;;20.20;88.20;;;;;;5028786;28;20971;-75
2023/05/08 05:39:17;;;;;;;0.30;0.30;;;20.20;88.20;;;;;;5005197;28;20046;-75
2023/05/08 05:41:43;;;;;;;0.28;0.28;;;20.30;88.50;;;;;;4982302;28;20056;-75
2023/05/08 05:44:09;;;;;;;0.30;0.30;;;20.20;88.20;;;;;;5029620;28;20579;-74
2023/05/08 05:46:35;;;;;;;0.68;0.30;;;20.20;88.20;;;;;;4997682;28;20042;-75
2023/05/08 05:49:00;;;;;;;0.38;0.38;;;20.10;88.30;;;;;;5000705;28;20053;-75
2023/05/08 05:51:29;;;;;;;0.30;0.30;;;20.10;88.40;;;;;;5007126;28;20054;-74
2023/05/08 05:53:55;;;;;;;0.40;0.40;;;20.10;88.30;;;;;;5006193;28;20054;-74
2023/05/08 05:56:22;;;;;;;0.40;0.40;;;20.10;88.20;;;;;;5009858;28;20046;-75
2023/05/08 05:58:47;;;;;;;0.75;0.25;;;20.10;88.30;;;;;;5032556;28;20041;-75
2023/05/08 06:01:13;;;;;;;0.35;0.35;;;20.10;88.30;;;;;;5009147;28;20597;-75
2023/05/08 06:03:39;;;;;;;0.20;0.20;;;20.10;88.40;;;;;;5006109;28;21500;-75
2023/05/08 06:06:04;;;;;;;1.50;0.30;;;20.10;88.40;;;;;;5005094;28;20554;-74
2023/05/08 06:08:30;;;;;;;0.30;0.30;;;20.10;88.40;;;;;;5006430;28;20049;-75
2023/05/08 06:10:56;;;;;;;0.28;0.20;;;20.10;88.40;;;;;;5010337;28;20088;-75
2023/05/08 06:13:21;;;;;;;0.20;0.20;;;20.10;88.50;;;;;;5008145;28;20108;-75
2023/05/08 06:15:49;;;;;;;0.30;0.30;;;20.10;88.40;;;;;;5005019;28;20530;-75
2023/05/08 06:18:14;;;;;;;0.55;0.55;;;20.10;88.40;;;;;;5004435;28;20529;-75
2023/05/08 06:20:40;;;;;;;0.30;0.30;;;20.10;88.20;;;;;;5008112;28;20149;-75
2023/05/08 06:23:06;;;;;;;0.50;0.30;;;20.10;88.30;;;;;;5005754;28;20056;-76
2023/05/08 06:25:31;;;;;;;0.30;0.30;;;20.10;88.20;;;;;;4660058;28;10001113;-76
2023/05/08 06:27:57;;;;;;;0.40;0.40;;;20.20;88.10;;;;;;4999584;28;20619;-75
2023/05/08 06:30:22;;;;;;;0.30;0.30;;;20.20;87.90;;;;;;5003896;28;20061;-76
2023/05/08 06:32:48;;;;;;;0.30;0.25;;;20.20;87.60;;;;;;5032198;28;20068;-75
2023/05/08 06:35:18;;;;;;;0.20;0.20;;;20.30;87.50;;;;;;5000217;28;20049;-75
2023/05/08 06:37:44;;;;;;;0.30;0.28;;;20.20;87.30;;;;;;5018295;28;20127;-76
2023/05/08 06:40:10;;;;;;;0.57;0.30;;;20.30;87.10;;;;;;5004095;28;20050;-76
2023/05/08 06:42:36;;;;;;;0.30;0.30;;;20.30;87.10;;;;;;5003252;28;20104;-75
2023/05/08 06:45:02;;;;;;;0.20;0.20;;;20.30;87.40;;;;;;5003897;28;20478;-76
2023/05/08 06:47:28;;;;;;;0.30;0.30;;;20.30;87.60;;;;;;4999144;28;20511;-76
2023/05/08 06:49:53;;;;;;;0.20;0.20;;;20.30;87.80;;;;;;5004164;28;20049;-77
2023/05/08 06:52:19;;;;;;;0.68;0.30;;;20.30;87.90;;;;;;5005302;28;20519;-77
2023/05/08 06:54:45;;;;;;;0.25;0.25;;;20.30;87.80;;;;;;5006564;28;20054;-76
2023/05/08 06:57:13;;;;;;;0.45;0.30;;;20.30;87.50;;;;;;5020993;28;20058;-76
2023/05/08 06:59:39;;;;;;;0.30;0.30;;;20.30;87.90;;;;;;5006243;28;20068;-78
2023/05/08 07:02:04;;;;;;;0.80;0.50;;;20.30;87.80;;;;;;4990963;28;20048;-78
2023/05/08 07:04:30;;;;;;;0.28;0.28;;;20.30;88.10;;;;;;5020473;28;20103;-78
2023/05/08 07:06:55;;;;;;;1.58;0.30;;;20.30;88.00;;;;;;4989524;28;20418;-78
2023/05/08 07:09:21;;;;;;;1.00;0.40;;;20.30;87.90;;;;;;5020765;28;20100;-78
2023/05/08 07:11:47;;;;;;;0.40;0.30;;;20.30;88.00;;;;;;5000716;28;20046;-79
2023/05/08 07:14:12;;;;;;;2.38;0.40;;;20.30;88.00;;;;;;5006411;28;20042;-78
2023/05/08 07:16:38;;;;;;;0.25;0.25;;;20.30;88.10;;;;;;5001453;28;20519;-78
2023/05/08 07:19:04;;;;;;;0.20;0.20;;;20.30;88.10;;;;;;4995940;28;20046;-80
2023/05/08 07:21:29;;;;;;;0.30;0.30;;;20.40;88.00;;;;;;5003150;28;20045;-79
2023/05/08 07:23:55;;;;;;;0.45;0.45;;;20.30;88.00;;;;;;5004617;28;20042;-79
2023/05/08 07:26:21;;;;;;;0.50;0.50;;;20.30;88.00;;;;;;4999878;28;20050;-79
2023/05/08 07:28:47;;;;;;;1.30;0.30;;;20.40;87.90;;;;;;5016528;28;20116;-78
2023/05/08 07:31:13;;;;;;;0.30;0.30;;;20.40;87.90;;;;;;5013438;28;20053;-78
2023/05/08 07:33:39;;;;;;;0.50;0.50;;;20.40;87.80;;;;;;5018065;28;20038;-78
2023/05/08 07:36:05;;;;;;;0.40;0.40;;;20.40;87.80;;;;;;5016335;28;20466;-78
2023/05/08 07:38:30;;;;;;;0.30;0.30;;;20.40;87.80;;;;;;5001616;28;20050;-77
2023/05/08 07:40:56;;;;;;;0.40;0.35;;;20.40;87.80;;;;;;5007437;28;20080;-78
2023/05/08 07:43:22;;;;;;;0.65;0.40;;;20.40;87.90;;;;;;5001912;28;20050;-77
2023/05/08 07:45:48;;;;;;;0.30;0.30;;;20.40;87.70;;;;;;5002842;28;20045;-77
2023/05/08 07:48:13;;;;;;;0.50;0.50;;;20.40;87.60;;;;;;5014039;28;20050;-77
2023/05/08 07:50:39;;;;;;;0.60;0.60;;;20.40;87.30;;;;;;5019146;28;20042;-77
2023/05/08 07:53:05;;;;;;;0.75;0.40;;;20.40;87.40;;;;;;5016922;28;20046;-77
2023/05/08 07:55:31;;;;;;;0.43;0.30;;;20.40;87.60;;;;;;5002143;28;20050;-79
2023/05/08 07:57:57;;;;;;;0.40;0.40;;;20.40;88.00;;;;;;4999024;28;20053;-78
2023/05/08 08:00:22;;;;;;;0.30;0.30;;;20.40;88.00;;;;;;5003794;28;20097;-78
2023/05/08 08:02:48;;;;;;;0.50;0.50;;;20.40;87.90;;;;;;4999541;28;20108;-78
2023/05/08 08:05:13;;;;;;;0.45;0.45;;;20.40;87.90;;;;;;5013792;28;20053;-77
2023/05/08 08:07:39;;;;;;;0.65;0.30;;;20.40;87.90;;;;;;4999337;28;20547;-78
2023/05/08 08:10:05;;;;;;;0.80;0.40;;;20.40;88.00;;;;;;5008404;28;20847;-78
2023/05/08 08:12:31;;;;;;;1.65;0.40;;;20.40;87.90;;;;;;4989126;28;20064;-78
2023/05/08 08:14:57;;;;;;;0.60;0.30;;;20.50;88.10;;;;;;5005799;28;20455;-78
2023/05/08 08:17:22;;;;;;;0.68;0.40;;;20.50;88.10;;;;;;4992298;28;20057;-79
2023/05/08 08:19:48;;;;;;;0.20;0.20;;;20.50;88.10;;;;;;4990322;28;20049;-77
2023/05/08 08:22:14;;;;;;;0.52;0.25;;;20.50;88.20;;;;;;4990621;28;20794;-75
2023/05/08 08:24:39;;;;;;;1.23;0.35;;;20.50;88.20;;;;;;4990014;28;20080;-75
2023/05/08 08:27:05;;;;;;;2.83;0.32;;;20.50;88.10;;;;;;4991420;28;20621;-77
2023/05/08 08:29:30;;;;;;;0.52;0.40;;;20.50;88.10;;;;;;4988198;28;20053;-77
2023/05/08 08:31:56;;;;;;;0.30;0.30;;;20.50;88.10;;;;;;5006181;28;20054;-76
2023/05/08 08:34:22;;;;;;;0.50;0.32;;;20.50;88.10;;;;;;4989759;28;20600;-75
2023/05/08 08:36:48;;;;;;;0.52;0.30;;;20.50;88.00;;;;;;4991193;28;20053;-76
2023/05/08 08:39:13;;;;;;;0.20;0.20;;;20.50;88.00;;;;;;5005568;28;20653;-76
2023/05/08 08:41:39;;;;;;;0.73;0.50;;;20.50;88.00;;;;;;5005062;28;20986;-76
2023/05/08 08:44:05;;;;;;;0.30;0.30;;;20.50;88.10;;;;;;5003714;28;20053;-76
2023/05/08 08:46:32;;;;;;;0.38;0.38;;;20.50;88.10;;;;;;4988812;28;20088;-76
2023/05/08 08:48:57;;;;;;;0.50;0.22;;;20.50;88.00;;;;;;4992449;28;20226;-76
2023/05/08 08:51:44;;;;;;;0.30;0.30;;;20.50;88.00;;;;;;4990852;28;20539;-76
2023/05/08 08:54:13;;;;;;;0.30;0.30;;;20.50;87.90;;;;;;5019369;28;20057;-77
2023/05/08 08:56:41;;;;;;;0.25;0.25;;;20.50;88.00;;;;;;5006853;28;20046;-75
2023/05/08 08:59:07;;;;;;;0.40;0.40;;;20.50;87.80;;;;;;5008074;28;20049;-77
2023/05/08 09:01:34;;;;;;;0.35;0.30;;;20.60;87.60;;;;;;4992447;28;20519;-78
2023/05/08 09:04:00;;;;;;;0.30;0.30;;;20.60;87.60;;;;;;5009938;28;20042;-76
2023/05/08 09:06:26;;;;;;;0.32;0.30;;;20.60;87.70;;;;;;5003853;28;20048;-79
2023/05/08 09:08:54;;;;;;;0.60;0.60;;;20.50;87.80;;;;;;5004267;28;20045;-76
2023/05/08 09:11:20;;;;;;;0.30;0.30;;;20.60;87.70;;;;;;4998085;28;20355;-77
2023/05/08 09:13:45;;;;;;;0.55;0.38;;;20.60;87.80;;;;;;5003023;28;20053;-76
2023/05/08 09:16:11;;;;;;;1.80;0.47;;;20.60;87.00;;;;;;5000965;28;20046;-78
2023/05/08 09:18:36;;;;;;;0.57;0.30;;;20.50;87.30;;;;;;5003725;28;20088;-76
2023/05/08 09:21:02;;;;;;;1.17;0.32;;;20.50;87.40;;;;;;5001742;28;20037;-76
2023/05/08 09:23:28;;;;;;;0.50;0.40;;;20.50;87.30;;;;;;4989724;28;20112;-77
2023/05/08 09:25:53;;;;;;;0.20;0.20;;;20.50;87.30;;;;;;5005274;28;20539;-75
2023/05/08 09:28:20;;;;;;;0.55;0.50;;;20.60;87.20;;;;;;5020790;28;20041;-77
2023/05/08 09:30:58;;;;;;;0.52;0.40;;;20.60;87.30;;;;;;5003932;28;20038;-76
2023/05/08 09:33:27;;;;;;;0.20;0.20;;;20.60;87.30;;;;;;5031962;28;20129;-76
2023/05/08 09:35:54;;;;;;;0.40;0.40;;;20.60;87.40;;;;;;5025690;28;20048;-77
2023/05/08 09:38:39;;;;;;;0.65;0.30;;;20.60;87.30;;;;;;5006312;28;20038;-76
2023/05/08 09:41:15;;;;;;;0.40;0.30;;;20.60;87.30;;;;;;5002509;28;20153;-75
2023/05/08 09:43:41;;;;;;;0.80;0.40;;;20.60;87.20;;;;;;5005533;28;20121;-77
2023/05/08 09:46:22;;;;;;;0.73;0.32;;;20.60;87.20;;;;;;5007455;28;20542;-76
2023/05/08 09:48:49;;;;;;;0.43;0.40;;;20.60;87.30;;;;;;5008562;28;20044;-77
2023/05/08 09:51:14;;;;;;;0.60;0.30;;;20.60;87.10;;;;;;5008895;28;20046;-77
2023/05/08 09:53:40;;;;;;;0.35;0.35;;;20.60;87.00;;;;;;5004672;28;20064;-76
2023/05/08 09:56:06;;;;;;;0.75;0.50;;;20.70;86.90;;;;;;5007444;28;20549;-76
2023/05/08 09:58:41;;;;;;;0.73;0.30;;;20.70;86.90;;;;;;5001016;28;20146;-77
2023/05/08 10:01:07;;;;;;;0.20;0.20;;;20.70;87.10;;;;;;5003814;28;20053;-77
2023/05/08 10:03:48;;;;;;;0.45;0.32;;;20.70;87.00;;;;;;5007807;28;20038;-77
2023/05/08 10:06:15;;;;;;;0.47;0.47;;;20.60;86.20;;;;;;5003912;28;20038;-76
2023/05/08 10:08:40;;;;;;;2.35;0.63;;;20.60;84.10;;;;;;4658814;28;10000355;-77
2023/05/08 10:11:14;;;;;;;0.85;0.60;;;20.50;84.00;;;;;;5001950;28;20677;-76
2023/05/08 10:13:39;;;;;;;2.55;1.30;;;20.40;83.70;;;;;;5002163;28;20092;-76
2023/05/08 10:16:05;;;;;;;1.73;0.90;;;20.40;85.00;;;;;;5004375;28;20038;-76
2023/05/08 10:18:31;;;;;;;1.05;0.50;;;20.30;84.10;;;;;;5020654;28;20051;-77
2023/05/08 10:20:56;;;;;;;2.00;0.60;;;20.30;82.80;;;;;;4998703;28;20519;-76
2023/05/08 10:23:22;;;;;;;0.70;0.60;;;20.40;82.30;;;;;;4988571;28;20041;-77
2023/05/08 10:25:50;;;;;;;0.50;0.40;;;20.30;81.80;;;;;;5001878;28;20073;-78
2023/05/08 10:28:17;;;;;;;1.40;0.70;;;20.30;81.90;;;;;;5019934;28;20034;-77
2023/05/08 10:30:47;;;;;;;1.50;0.60;;;20.40;81.90;;;;;;5003284;28;20519;-78
2023/05/08 10:33:14;;;;;;;1.52;0.98;;;20.30;83.30;;;;;;4983786;28;20046;-80
2023/05/08 10:35:39;;;;;;;1.48;1.38;;;20.50;86.70;;;;;;4999210;28;20090;-80
2023/05/08 10:38:07;;;;;;;1.95;1.85;;;20.60;90.00;;;;;;5018435;28;20200;-79
2023/05/08 10:40:33;;;;;;;1.40;1.30;;;20.70;88.20;;;;;;5018670;28;20041;-78
2023/05/08 10:42:58;;;;;;;1.33;1.13;;;20.70;90.00;;;;;;5002327;28;20073;-78
2023/05/08 10:45:24;;;;;;;1.25;1.15;;;20.70;89.30;;;;;;5015660;28;20565;-80
2023/05/08 10:48:03;;;;;;;0.80;0.80;;;20.80;89.30;;;;;;4985465;28;20054;-80
2023/05/08 10:51:00;;;;;;;1.23;0.90;;;20.90;88.40;;;;;;5017561;28;20133;-80
2023/05/08 10:53:41;;;;;;;0.88;0.88;;;20.90;88.30;;;;;;4959944;28;21294;-78
2023/05/08 10:56:08;;;;;;;0.70;0.68;;;20.90;88.40;;;;;;4966177;28;20097;-79
2023/05/08 10:58:36;;;;;;;3.55;0.82;;;20.90;88.90;;;;;;4949029;28;20050;-78
2023/05/08 11:01:07;;;;;;;1.13;0.75;;;20.90;88.00;;;;;;4978886;28;20042;-77
2023/05/08 11:03:38;;;;;;;0.60;0.50;;;20.90;87.80;;;;;;4983416;28;20562;-77
2023/05/08 11:06:03;;;;;;;1.63;0.60;;;20.90;87.90;;;;;;4981244;28;20528;-79
2023/05/08 11:08:29;;;;;;;0.82;0.68;;;20.90;88.00;;;;;;4981559;28;20039;-79
2023/05/08 11:11:00;;;;;;;0.60;0.55;;;20.90;88.10;;;;;;4982766;28;20164;-79
2023/05/08 11:13:37;;;;;;;0.90;0.82;;;20.80;88.10;;;;;;4982709;28;20042;-79
2023/05/08 11:16:02;;;;;;;0.45;0.40;;;20.80;88.10;;;;;;4960125;28;20092;-80
2023/05/08 11:18:28;;;;;;;1.40;0.65;;;20.80;88.10;;;;;;4980444;28;20117;-79
2023/05/08 11:20:58;;;;;;;0.68;0.55;;;20.80;88.10;;;;;;4962035;28;20125;-79
2023/05/08 11:23:25;;;;;;;0.38;0.30;;;20.80;88.10;;;;;;4962975;28;20716;-77
2023/05/08 11:26:04;;;;;;;1.15;0.50;;;20.80;88.00;;;;;;4965955;28;20125;-78
2023/05/08 11:28:36;;;;;;;0.60;0.40;;;20.80;87.90;;;;;;4981453;28;20042;-78
2023/05/08 11:31:03;;;;;;;0.80;0.73;;;20.80;87.90;;;;;;5000452;28;20054;-78
2023/05/08 11:33:33;;;;;;;0.40;0.40;;;20.90;88.00;;;;;;5002093;28;20034;-77
2023/05/08 11:36:13;;;;;;;0.82;0.45;;;20.90;87.90;;;;;;4999898;28;20626;-77
2023/05/08 11:38:39;;;;;;;0.60;0.35;;;20.90;88.00;;;;;;4998519;28;20129;-79
2023/05/08 11:41:06;;;;;;;3.05;0.57;;;20.80;88.00;;;;;;5009449;28;20045;-79
2023/05/08 11:43:32;;;;;;;0.93;0.50;;;20.90;88.10;;;;;;5003173;28;20045;-78
2023/05/08 11:46:03;;;;;;;1.58;0.55;;;20.90;88.00;;;;;;4999479;28;20420;-79
2023/05/08 11:48:29;;;;;;;0.57;0.40;;;20.90;88.00;;;;;;5006027;28;20117;-78
2023/05/08 11:50:54;;;;;;;0.80;0.40;;;20.90;88.10;;;;;;5017293;28;20057;-79
2023/05/08 11:53:20;;;;;;;0.60;0.50;;;20.90;88.10;;;;;;5019536;28;20041;-79
2023/05/08 11:55:49;;;;;;;2.20;0.73;;;20.90;88.80;;;;;;5020251;28;20041;-79
2023/05/08 11:58:15;;;;;;;0.50;0.40;;;20.90;88.00;;;;;;5032847;28;20058;-78
2023/05/08 12:00:44;;;;;;;0.50;0.43;;;20.90;88.00;;;;;;4989452;28;20046;-79
2023/05/08 12:03:14;;;;;;;0.30;0.30;;;20.90;87.90;;;;;;5006916;28;20108;-78
2023/05/08 12:05:40;;;;;;;0.43;0.30;;;20.90;87.90;;;;;;5006433;28;20415;-78
2023/05/08 12:08:06;;;;;;;0.40;0.40;;;20.90;87.90;;;;;;5006248;28;20056;-77
2023/05/08 12:10:32;;;;;;;3.78;0.73;;;20.90;87.80;;;;;;5006524;28;20511;-78
2023/05/08 12:12:57;;;;;;;0.75;0.60;;;20.90;87.80;;;;;;4999506;28;20049;-77
2023/05/08 12:15:23;;;;;;;1.35;0.30;;;20.90;87.70;;;;;;5012583;28;20455;-77
2023/05/08 12:17:49;;;;;;;1.40;0.40;;;21.00;87.80;;;;;;5019235;28;20053;-76
2023/05/08 12:20:16;;;;;;;0.45;0.45;;;21.00;87.80;;;;;;5012142;28;20556;-76
2023/05/08 12:22:48;;;;;;;0.32;0.30;;;20.90;87.70;;;;;;5003027;28;20500;-76
2023/05/08 12:25:14;;;;;;;0.30;0.28;;;21.00;87.80;;;;;;4995485;28;20140;-76
2023/05/08 12:27:40;;;;;;;0.57;0.38;;;21.00;87.70;;;;;;5001774;28;20513;-76
2023/05/08 12:30:07;;;;;;;0.50;0.40;;;21.00;87.80;;;;;;5026721;28;20053;-76
2023/05/08 12:32:34;;;;;;;0.75;0.30;;;21.00;87.60;;;;;;5025772;28;20054;-76
2023/05/08 12:35:00;;;;;;;1.75;0.40;;;21.00;88.40;;;;;;5003912;28;20033;-77
2023/05/08 12:37:28;;;;;;;0.38;0.32;;;21.00;87.70;;;;;;4657371;28;9999853;-77
2023/05/08 12:39:54;;;;;;;0.50;0.47;;;21.00;87.60;;;;;;5002250;28;20121;-77
2023/05/08 12:42:20;;;;;;;0.40;0.40;;;21.00;87.60;;;;;;5030523;28;20121;-79
2023/05/08 12:44:51;;;;;;;1.15;0.43;;;21.00;87.50;;;;;;5020552;28;20503;-78
2023/05/08 12:47:20;;;;;;;1.75;0.55;;;21.10;87.00;;;;;;5019829;28;20107;-78
2023/05/08 12:49:49;;;;;;;0.63;0.40;;;21.10;87.30;;;;;;5032698;28;20052;-77